createdAt,value
2023-05-19T00:02:12.631Z,72
2023-05-19T00:07:22.936Z,72
2023-05-19T00:12:33.325Z,72
2023-05-19T00:17:44.237Z,72
2023-05-19T00:22:54.564Z,73
2023-05-19T00:28:04.962Z,73
2023-05-19T00:33:15.865Z,73
2023-05-19T00:38:26.238Z,73
2023-05-19T00:43:36.607Z,73
2023-05-19T00:48:39.702Z,74
2023-05-19T00:53:39.716Z,74
2023-05-19T00:59:08.264Z,74
2023-05-19T01:04:18.616Z,75
2023-05-19T01:09:29.526Z,75
2023-05-19T01:14:39.902Z,76
2023-05-19T01:19:50.278Z,76
2023-05-19T01:25:01.186Z,76
2023-05-19T01:30:50.356Z,77
2023-05-19T01:41:11.082Z,78
2023-05-19T01:46:22.155Z,77
2023-05-19T01:51:32.375Z,78
2023-05-19T01:56:42.751Z,77
2023-05-19T02:02:32.486Z,78
2023-05-19T02:07:42.824Z,78
2023-05-19T02:18:03.617Z,78
2023-05-19T02:23:14.466Z,79
2023-05-19T02:28:39.694Z,79
2023-05-19T02:34:14.008Z,80
2023-05-19T02:39:24.387Z,80
2023-05-19T02:44:35.291Z,80
2023-05-19T02:49:45.676Z,81
2023-05-19T02:56:13.683Z,82
2023-05-19T03:01:24.548Z,82
2023-05-19T03:11:45.289Z,83
2023-05-19T03:16:55.739Z,84
2023-05-19T03:22:06.612Z,84
2023-05-19T03:27:16.936Z,84
2023-05-19T03:32:27.421Z,84
2023-05-19T03:37:37.698Z,84
2023-05-19T03:42:48.869Z,84
2023-05-19T03:47:58.999Z,84
2023-05-19T03:53:09.349Z,84
2023-05-19T03:58:19.701Z,84
2023-05-19T04:03:30.906Z,84
2023-05-19T04:08:39.707Z,85
2023-05-19T04:13:51.347Z,85
2023-05-19T04:19:01.754Z,85
2023-05-19T04:24:12.628Z,85
2023-05-19T04:29:23.014Z,85
2023-05-19T04:35:12.177Z,85
2023-05-19T04:40:22.552Z,84
2023-05-19T04:48:39.704Z,81
2023-05-19T04:58:41.840Z,76
2023-05-19T05:04:23.275Z,75
2023-05-19T05:13:39.705Z,72
2023-05-19T05:18:40.828Z,71
2023-05-19T05:25:08.067Z,69
2023-05-19T05:32:40.480Z,68
2023-05-19T05:38:39.694Z,68
2023-05-19T05:43:39.716Z,68
2023-05-19T05:51:15.605Z,64
2023-05-19T05:56:24.839Z,63
2023-05-19T06:03:39.738Z,65
2023-05-19T06:08:39.701Z,63
2023-05-19T06:18:39.708Z,61
2023-05-19T06:23:39.680Z,58
2023-05-19T06:28:39.702Z,54
2023-05-19T06:33:39.698Z,57
2023-05-19T06:43:39.704Z,59
2023-05-19T06:48:39.707Z,58
2023-05-19T06:58:39.691Z,54
2023-05-19T07:08:39.680Z,51
2023-05-19T07:13:39.704Z,51
2023-05-19T07:23:39.711Z,50
2023-05-19T07:28:41.607Z,53
2023-05-19T07:37:25.788Z,50
2023-05-19T07:43:39.696Z,51
2023-05-19T07:48:53.415Z,50
2023-05-19T08:05:05.512Z,50
2023-05-19T08:10:16.851Z,51
2023-05-19T08:16:06.600Z,45
2023-05-19T08:21:17.991Z,45
2023-05-19T08:31:41.358Z,42
2023-05-19T08:42:04.183Z,45
2023-05-19T08:53:08.166Z,45
2023-05-19T08:58:18.302Z,48
2023-05-19T09:03:30.350Z,46
2023-05-19T09:08:39.679Z,43
2023-05-19T09:13:39.702Z,39
2023-05-19T09:19:05.062Z,42
2023-05-19T09:24:16.982Z,39
2023-05-19T09:29:28.913Z,40
2023-05-19T09:34:41.393Z,40
2023-05-19T09:40:32.651Z,41
2023-05-19T09:45:44.666Z,40
2023-05-19T09:50:56.550Z,42
2023-05-19T09:56:07.977Z,41
2023-05-19T10:01:19.990Z,42
2023-05-19T10:11:42.815Z,42
2023-05-19T10:16:54.743Z,42
2023-05-19T10:22:06.129Z,43
2023-05-19T10:27:18.086Z,43
2023-05-19T10:32:29.716Z,43
2023-05-19T10:37:41.440Z,42
2023-05-19T10:42:53.401Z,42
2023-05-19T10:48:05.893Z,39
2023-05-19T10:53:18.863Z,36
2023-05-19T10:58:39.706Z,40
2023-05-19T11:03:43.284Z,38
2023-05-19T11:08:55.754Z,37
2023-05-19T11:14:08.220Z,40
2023-05-19T11:19:21.473Z,36
2023-05-19T11:24:34.244Z,35
2023-05-19T11:29:46.707Z,36
2023-05-19T11:35:38.185Z,38
2023-05-19T11:40:50.944Z,37
2023-05-19T11:46:04.526Z,34
2023-05-19T11:51:17.995Z,34
2023-05-19T11:56:32.052Z,34
2023-05-19T12:01:45.557Z,36
2023-05-19T12:07:38.423Z,32
2023-05-19T12:12:52.965Z,32
2023-05-19T12:18:07.058Z,29
2023-05-19T12:23:39.678Z,30
2023-05-19T12:28:39.691Z,34
2023-05-19T12:33:50.174Z,31
2023-05-19T12:39:04.240Z,31
2023-05-19T12:44:18.337Z,34
2023-05-19T12:49:32.861Z,33
2023-05-19T12:54:48.013Z,30
2023-05-19T13:00:02.523Z,30
2023-05-19T13:05:17.586Z,31
2023-05-19T13:10:31.983Z,30
2023-05-19T13:17:44.245Z,32
2023-05-19T13:23:39.682Z,31
2023-05-19T13:28:39.698Z,32
2023-05-19T13:35:53.099Z,31
2023-05-19T13:43:39.701Z,27
2023-05-19T13:53:39.709Z,30
2023-05-19T13:58:39.715Z,32
2023-05-19T14:03:45.629Z,32
2023-05-19T14:11:02.275Z,34
2023-05-19T14:18:39.709Z,32
2023-05-19T14:23:39.704Z,29
2023-05-19T14:28:54.942Z,28
2023-05-19T14:34:57.770Z,32
2023-05-19T14:40:21.767Z,31
2023-05-19T14:46:41.912Z,29
2023-05-19T14:53:39.712Z,30
2023-05-19T14:59:38.341Z,32
2023-05-19T15:08:39.687Z,34
2023-05-19T15:13:39.722Z,32
2023-05-19T15:21:11.185Z,32
2023-05-19T15:28:39.716Z,35
2023-05-19T15:38:39.694Z,36
2023-05-19T15:43:48.565Z,37
2023-05-19T15:48:59.970Z,36
2023-05-19T15:54:10.889Z,37
2023-05-19T16:00:00.590Z,38
2023-05-19T16:05:50.271Z,39
2023-05-19T16:11:01.168Z,39
2023-05-19T16:16:12.092Z,38
2023-05-19T16:21:22.981Z,39
2023-05-19T16:26:33.896Z,39
2023-05-19T16:32:24.144Z,39
2023-05-19T16:37:34.981Z,40
2023-05-19T16:42:45.898Z,40
2023-05-19T16:47:56.302Z,39
2023-05-19T16:53:07.193Z,40
2023-05-19T16:58:39.695Z,40
2023-05-19T17:03:39.798Z,41
2023-05-19T17:08:39.854Z,40
2023-05-19T17:13:50.781Z,40
2023-05-19T17:19:01.680Z,40
2023-05-19T17:24:12.566Z,41
2023-05-19T17:29:23.471Z,43
2023-05-19T17:35:13.152Z,43
2023-05-19T17:40:24.057Z,43
2023-05-19T17:45:34.435Z,43
2023-05-19T17:50:45.317Z,43
2023-05-19T17:55:56.243Z,43
2023-05-19T18:01:45.934Z,43
2023-05-19T18:06:56.833Z,43
2023-05-19T18:12:07.211Z,44
2023-05-19T18:17:18.083Z,43
2023-05-19T18:22:28.985Z,43
2023-05-19T18:27:39.898Z,45
2023-05-19T18:32:50.300Z,44
2023-05-19T18:38:01.158Z,46
2023-05-19T18:43:12.071Z,46
2023-05-19T18:59:23.052Z,47
2023-05-19T19:04:33.990Z,47
2023-05-19T19:09:44.310Z,48
2023-05-19T19:14:55.229Z,48
2023-05-19T19:20:06.200Z,49
2023-05-19T19:26:34.589Z,50
2023-05-19T19:31:45.130Z,50
2023-05-19T19:36:55.877Z,51
2023-05-19T19:42:45.564Z,50
2023-05-19T19:47:55.955Z,51
2023-05-19T19:53:06.834Z,52
2023-05-19T19:58:17.201Z,52
2023-05-19T20:03:39.760Z,53
2023-05-19T20:09:17.803Z,54
2023-05-19T20:14:28.203Z,54
2023-05-19T20:19:39.085Z,55
2023-05-19T20:25:28.785Z,56
2023-05-19T20:30:39.171Z,57
2023-05-19T20:35:50.046Z,58
2023-05-19T20:41:00.422Z,58
2023-05-19T20:46:11.339Z,58
2023-05-19T20:51:22.225Z,58
2023-05-19T20:57:50.202Z,59
2023-05-19T21:03:01.119Z,59
2023-05-19T21:08:11.453Z,59
2023-05-19T21:13:22.422Z,59
2023-05-19T21:18:33.305Z,60
2023-05-19T21:23:39.682Z,61
2023-05-19T21:28:39.705Z,61
2023-05-19T21:33:39.703Z,62
2023-05-19T21:39:15.811Z,62
2023-05-19T21:44:26.198Z,63
2023-05-19T21:49:37.087Z,63
2023-05-19T21:54:47.462Z,64
2023-05-19T21:59:58.381Z,63
2023-05-19T22:05:08.758Z,63
2023-05-19T22:10:19.636Z,63
2023-05-19T22:15:30.015Z,63
2023-05-19T22:20:40.374Z,65
2023-05-19T22:25:51.275Z,65
2023-05-19T22:31:01.663Z,65
2023-05-19T22:37:30.169Z,67
2023-05-19T22:42:40.509Z,67
2023-05-19T22:53:39.697Z,67
2023-05-19T22:58:51.496Z,67
2023-05-19T23:04:01.911Z,68
2023-05-19T23:09:12.760Z,68
2023-05-19T23:15:01.930Z,69
2023-05-19T23:20:12.824Z,69
2023-05-19T23:25:23.213Z,69
2023-05-19T23:30:33.568Z,70
2023-05-19T23:35:44.488Z,70
2023-05-19T23:40:54.913Z,70
2023-05-19T23:46:44.641Z,69
2023-05-19T23:52:33.731Z,69
2023-05-19T23:57:44.659Z,69
